Date,TemperatureHighF,TemperatureAvgF,TemperatureLowF,DewpointHighF,DewpointAvgF,DewpointLowF,HumidityHigh,HumidityAvg,HumidityLow,PressureMaxIn,PressureMinIn,WindSpeedMaxMPH,WindSpeedAvgMPH,GustSpeedMaxMPH,PrecipitationSumIn
2013-11-1,75,67,61,62,60,58,92,79,62,29.77,29.58,7,2,18,0.02
2013-11-2,68,60,52,58,46,39,95,62,46,29.87,29.64,8,2,15,0.00
2013-11-3,57,50,42,43,33,22,75,55,26,30.43,29.87,6,2,17,0.00
2013-11-4,47,40,34,29,24,21,69,53,39,30.62,30.44,3,1,11,0.00
2013-11-5,57,48,37,48,39,28,81,70,62,30.60,30.45,3,0,7,0.00
2013-11-6,70,59,52,54,51,48,84,76,57,30.45,30.07,7,1,14,0.00
2013-11-7,62,54,44,56,46,24,94,75,43,30.07,29.87,7,3,21,0.01
2013-11-8,51,44,36,30,26,23,68,50,36,30.31,30.07,13,2,21,0.00
2013-11-9,35,32,31,28,27,27,84,83,73,30.34,30.04,1,0,2,0.00
2013-11-10,62,47,31,37,30,27,84,56,30,30.21,29.94,10,3,23,0.00
2013-11-11,57,49,38,33,30,28,71,49,37,30.30,30.00,9,3,17,0.00
2013-11-12,51,42,32,34,24,15,67,49,40,30.39,29.97,11,3,21,0.00
2013-11-13,43,36,31,22,20,17,63,52,42,30.47,30.39,10,2,19,0.00
2013-11-14,56,40,29,27,21,15,64,47,24,30.39,30.22,6,1,8,0.00
2013-11-15,62,46,34,43,30,25,88,54,28,30.27,30.18,6,1,11,0.03
2013-11-16,53,50,46,50,48,42,96,93,84,30.31,30.23,3,0,6,0.37
2013-11-17,63,57,51,58,54,50,97,91,82,30.22,29.75,7,1,15,0.00
2013-11-18,68,62,51,60,42,26,94,54,21,29.93,29.69,13,4,18,0.00
2013-11-19,50,44,39,28,27,25,61,50,41,30.35,29.93,15,4,24,0.00
2013-11-20,48,39,35,29,26,23,77,58,42,30.55,30.36,4,1,12,0.00
2013-11-21,50,42,34,40,34,29,84,73,62,30.56,30.39,2,0,5,0.00
2013-11-22,62,54,46,54,47,39,83,76,67,30.39,29.99,5,1,14,0.00
2013-11-23,57,46,32,50,30,15,76,55,36,30.18,30.02,14,5,27,0.00
2013-11-24,32,28,24,14,7,4,50,41,34,30.52,30.20,16,5,24,0.00
2013-11-25,24,22,22,9,8,7,54,53,50,30.57,30.35,5,4,12,0.00
2013-11-26,45,31,22,44,24,7,97,78,53,30.34,29.60,7,3,16,1.80
2013-11-27,40,36,30,37,31,16,96,83,56,30.02,29.51,10,4,27,0.44
2013-11-28,39,32,28,24,16,14,70,54,42,30.47,30.04,21,3,22,0.00
2013-11-29,33,28,27,23,22,21,80,76,63,30.71,30.45,0,0,2,0.00
2013-11-30,37,32,27,26,22,19,77,66,50,30.71,30.38,3,0,8,0.00